Terminal Aerodrome Forecast
Issued by NWS

Home | Current Version | Previous Version | Text Only | Print | Product List | Glossary On
Versions: 1 2 3 4 5 6 7 8 9 10 11 12 13 14 15 16 17 18
000
FTUS46 KOTX 191736
TAFMWH
TAF
KMWH 191736Z 1918/2018 20010KT P6SM VCSH OVC090
     FM192100 20010G15KT P6SM -RA OVC050
     FM200400 18011KT P6SM -RA SCT025 BKN050 OVC080
     FM200700 20012G20KT P6SM VCSH SCT030 OVC080
     FM201200 21012KT P6SM SCT060 BKN080=

USA.gov is the U.S. government's official web portal to all federal, state and local government web resources and services.